DGAA/ACC METAR and TAF weather

Enter ICAO airport designator
Station Type Date Time Source
DGAA METAR 2019/08/17 10:00 UTC NOAA

DGAA 171000Z 25012KT 210V270 9999 FEW021 28/21 Q1015 NOSIG


Station Type Date Time Source
DGAA Decoded METAR 2019/08/17 10:00 UTC NOAA

Station name not available
Aug 17, 2019 - 06:00 AM EDT / 2019.08.17 1000 UTC
Wind: from the WSW (250 degrees) at 14 MPH (12 KT) (direction variable):0
Visibility: greater than 7 mile(s):0
Sky conditions: mostly clear
Temperature: 82 F (28 C)
Dew Point: 69 F (21 C)
Relative Humidity: 65%
Pressure (altimeter): 29.97 in. Hg (1015 hPa)
ob: DGAA 171000Z 25012KT 210V270 9999 FEW021 28/21 Q1015 NOSIG
cycle: 10

Station Type Date Time Source
DGAA TAF 2019/08/17 06:21 UTC NOAA

TAF DGAA 170500Z 1706/1812 24012KT 9999 BKN010
BECMG 1706/1708 5000 BR
BECMG 1712/1714 19015KT 9999 SCT020 PROB30
TEMPO 1716/1720 8000 -RA

Example: see airport list